KAL467 RKSI-VVCR
Flight info
| Callsign | KAL467 |
|---|---|
| Flight time | N/A |
| Altitude | 34000 |
| Route | BOPTA2Y BOPTA Z51 BEDES Y711 MUGUS Y742 SALMI Q11 TACLE Q12 YANMA/N0463F360 Q12 KABAM N892 MIGUG/K0857F360 N892 MESOX Q15 NITOM NITOM1C |
| Aircraft | A21N/M-SDE2E3FGHIJ1RWXY/LB1 |
Departure
| Time | 2026-05-01 10:34 |
|---|---|
| Airport | Incheon International Airport (RKSI) |
Arrival
| Time | N/A |
|---|---|
| Airport | Cam Ranh International Airport / Cam Ranh Air Base (VVCR) |
| Time | Latitude | Longitude | Altitude | Speed | Heading |
|---|---|---|---|---|---|
| 2026-05-01 10:07 | 37.46432 | 126.43339 | 38 ft | 0 kts | 259° |
| 2026-05-01 10:20 | 37.46435 | 126.43362 | 38 ft | 4 kts | 259° |
| 2026-05-01 10:20 | 37.46440 | 126.43395 | 38 ft | 4 kts | 260° |
| 2026-05-01 10:20 | 37.46444 | 126.43428 | 38 ft | 4 kts | 268° |
| 2026-05-01 10:20 | 37.46443 | 126.43462 | 38 ft | 4 kts | 275° |
| 2026-05-01 10:21 | 37.46439 | 126.43496 | 38 ft | 4 kts | 283° |
| 2026-05-01 10:21 | 37.46421 | 126.43559 | 38 ft | 4 kts | 297° |
| 2026-05-01 10:21 | 37.46408 | 126.43589 | 38 ft | 4 kts | 301° |
| 2026-05-01 10:22 | 37.46391 | 126.43644 | 38 ft | 4 kts | 234° |
| 2026-05-01 10:22 | 37.46406 | 126.43671 | 38 ft | 0 kts | 234° |
| 2026-05-01 10:24 | 37.46406 | 126.43670 | 38 ft | 1 kts | 234° |
| 2026-05-01 10:24 | 37.46306 | 126.43599 | 38 ft | 13 kts | 150° |
| 2026-05-01 10:25 | 37.46151 | 126.43601 | 38 ft | 15 kts | 230° |
| 2026-05-01 10:25 | 37.46022 | 126.43373 | 38 ft | 17 kts | 233° |
| 2026-05-01 10:26 | 37.45954 | 126.43252 | 38 ft | 17 kts | 234° |
| 2026-05-01 10:26 | 37.45849 | 126.43253 | 37 ft | 18 kts | 145° |
| 2026-05-01 10:26 | 37.45633 | 126.43440 | 37 ft | 21 kts | 142° |
| 2026-05-01 10:27 | 37.45373 | 126.43674 | 38 ft | 24 kts | 145° |
| 2026-05-01 10:27 | 37.45096 | 126.43923 | 37 ft | 25 kts | 146° |
| 2026-05-01 10:28 | 37.44951 | 126.44047 | 38 ft | 26 kts | 144° |
| 2026-05-01 10:28 | 37.44655 | 126.44315 | 37 ft | 27 kts | 144° |
| 2026-05-01 10:28 | 37.44552 | 126.44405 | 38 ft | 10 kts | 146° |
| 2026-05-01 10:29 | 37.44445 | 126.44333 | 38 ft | 12 kts | 234° |
| 2026-05-01 10:29 | 37.44396 | 126.44247 | 38 ft | 13 kts | 234° |
| 2026-05-01 10:30 | 37.44346 | 126.44151 | 37 ft | 2 kts | 272° |
| 2026-05-01 10:30 | 37.44388 | 126.44132 | 38 ft | 4 kts | 331° |
| 2026-05-01 10:31 | 37.44391 | 126.44129 | 35 ft | 0 kts | 328° |
| 2026-05-01 10:33 | 37.44457 | 126.44076 | 38 ft | 38 kts | 325° |
| 2026-05-01 10:33 | 37.45631 | 126.43026 | 39 ft | 161 kts | 322° |
| 2026-05-01 10:34 | 37.46585 | 126.42168 | 504 ft | 166 kts | 319° |
| 2026-05-01 10:34 | 37.47522 | 126.41319 | 1142 ft | 166 kts | 318° |
| 2026-05-01 10:34 | 37.48238 | 126.40232 | 1719 ft | 161 kts | 291° |
| 2026-05-01 10:35 | 37.49579 | 126.37943 | 2760 ft | 167 kts | 311° |
| 2026-05-01 10:35 | 37.50278 | 126.36759 | 3185 ft | 173 kts | 292° |
| 2026-05-01 10:35 | 37.50455 | 126.35192 | 3473 ft | 190 kts | 272° |
| 2026-05-01 10:35 | 37.50466 | 126.33470 | 3834 ft | 203 kts | 272° |
| 2026-05-01 10:36 | 37.50542 | 126.29633 | 4405 ft | 238 kts | 274° |
| 2026-05-01 10:36 | 37.50591 | 126.27475 | 4786 ft | 253 kts | 274° |
| 2026-05-01 10:36 | 37.50645 | 126.25228 | 5361 ft | 259 kts | 274° |
| 2026-05-01 10:37 | 37.50697 | 126.22947 | 6015 ft | 262 kts | 275° |
| 2026-05-01 10:37 | 37.49838 | 126.18476 | 7273 ft | 280 kts | 236° |
| 2026-05-01 10:37 | 37.48316 | 126.16892 | 7861 ft | 292 kts | 210° |
| 2026-05-01 10:38 | 37.46405 | 126.15945 | 8466 ft | 298 kts | 202° |
| 2026-05-01 10:38 | 37.44426 | 126.15111 | 9056 ft | 302 kts | 201° |
| 2026-05-01 10:38 | 37.42349 | 126.14581 | 9614 ft | 310 kts | 183° |
| 2026-05-01 10:38 | 37.40222 | 126.15074 | 10108 ft | 317 kts | 156° |
| 2026-05-01 10:39 | 37.38392 | 126.16667 | 10428 ft | 327 kts | 132° |
| 2026-05-01 10:39 | 37.36637 | 126.18575 | 10674 ft | 342 kts | 146° |
| 2026-05-01 10:39 | 37.34548 | 126.20144 | 10904 ft | 357 kts | 149° |
| 2026-05-01 10:39 | 37.32356 | 126.21742 | 11117 ft | 372 kts | 149° |
| 2026-05-01 10:40 | 37.30096 | 126.23451 | 11339 ft | 386 kts | 148° |
| 2026-05-01 10:40 | 37.27777 | 126.25257 | 11553 ft | 399 kts | 147° |
| 2026-05-01 10:40 | 37.25392 | 126.27146 | 11763 ft | 412 kts | 147° |
| 2026-05-01 10:40 | 37.22942 | 126.29100 | 11967 ft | 423 kts | 147° |
| 2026-05-01 10:41 | 37.20422 | 126.31107 | 12186 ft | 432 kts | 147° |
| 2026-05-01 10:41 | 37.17871 | 126.33130 | 12555 ft | 436 kts | 147° |
| 2026-05-01 10:41 | 37.12705 | 126.37227 | 13331 ft | 441 kts | 147° |
| 2026-05-01 10:42 | 37.10102 | 126.39288 | 13711 ft | 444 kts | 147° |
| 2026-05-01 10:42 | 37.07484 | 126.41360 | 14042 ft | 447 kts | 147° |
| 2026-05-01 10:42 | 37.04848 | 126.43445 | 14391 ft | 450 kts | 147° |
| 2026-05-01 10:42 | 37.02196 | 126.45544 | 14735 ft | 452 kts | 147° |
| 2026-05-01 10:43 | 36.99529 | 126.47650 | 15106 ft | 454 kts | 147° |
| 2026-05-01 10:43 | 36.96849 | 126.49766 | 15509 ft | 457 kts | 147° |
| 2026-05-01 10:43 | 36.94146 | 126.51896 | 15900 ft | 461 kts | 147° |
| 2026-05-01 10:43 | 36.91467 | 126.54004 | 16460 ft | 457 kts | 147° |
| 2026-05-01 10:44 | 36.88789 | 126.56038 | 17570 ft | 440 kts | 152° |
| 2026-05-01 10:44 | 36.86057 | 126.57504 | 18844 ft | 415 kts | 164° |
| 2026-05-01 10:44 | 36.83354 | 126.58465 | 20061 ft | 390 kts | 168° |
| 2026-05-01 10:44 | 36.80765 | 126.59297 | 20877 ft | 383 kts | 169° |
| 2026-05-01 10:45 | 36.78150 | 126.60125 | 21136 ft | 390 kts | 169° |
| 2026-05-01 10:45 | 36.75517 | 126.60969 | 21313 ft | 399 kts | 169° |
| 2026-05-01 10:45 | 36.72790 | 126.61854 | 21484 ft | 408 kts | 169° |
| 2026-05-01 10:45 | 36.70016 | 126.62780 | 21639 ft | 418 kts | 168° |
| 2026-05-01 10:46 | 36.67173 | 126.63740 | 21798 ft | 427 kts | 168° |
| 2026-05-01 10:46 | 36.64275 | 126.64717 | 21952 ft | 436 kts | 168° |
| 2026-05-01 10:46 | 36.61316 | 126.65712 | 22076 ft | 445 kts | 169° |
| 2026-05-01 10:46 | 36.58293 | 126.66728 | 22226 ft | 453 kts | 169° |
| 2026-05-01 10:47 | 36.55218 | 126.67757 | 22372 ft | 462 kts | 169° |
| 2026-05-01 10:47 | 36.52130 | 126.68790 | 22509 ft | 469 kts | 169° |
| 2026-05-01 10:47 | 36.48937 | 126.69859 | 22649 ft | 477 kts | 169° |
| 2026-05-01 10:47 | 36.45689 | 126.70944 | 22781 ft | 484 kts | 169° |
| 2026-05-01 10:48 | 36.42408 | 126.72041 | 22912 ft | 492 kts | 169° |
| 2026-05-01 10:48 | 36.39110 | 126.73142 | 23032 ft | 499 kts | 169° |
| 2026-05-01 10:48 | 36.35728 | 126.74271 | 23156 ft | 506 kts | 169° |
| 2026-05-01 10:48 | 36.32297 | 126.75431 | 23276 ft | 513 kts | 168° |
| 2026-05-01 10:49 | 36.28828 | 126.76607 | 23405 ft | 519 kts | 168° |
| 2026-05-01 10:49 | 36.25322 | 126.77790 | 23535 ft | 525 kts | 169° |
| 2026-05-01 10:49 | 36.21782 | 126.78982 | 23711 ft | 528 kts | 169° |
| 2026-05-01 10:49 | 36.18228 | 126.80174 | 23923 ft | 530 kts | 169° |
| 2026-05-01 10:50 | 36.14619 | 126.80977 | 24102 ft | 523 kts | 181° |
| 2026-05-01 10:50 | 36.11068 | 126.80870 | 24353 ft | 514 kts | 191° |
| 2026-05-01 10:50 | 36.07501 | 126.80466 | 24632 ft | 513 kts | 192° |
| 2026-05-01 10:50 | 36.03937 | 126.80041 | 24922 ft | 513 kts | 192° |
| 2026-05-01 10:51 | 36.00385 | 126.79633 | 25233 ft | 512 kts | 192° |
| 2026-05-01 10:51 | 35.96833 | 126.79240 | 25512 ft | 511 kts | 192° |
| 2026-05-01 10:51 | 35.93297 | 126.78858 | 25843 ft | 510 kts | 192° |
| 2026-05-01 10:51 | 35.90961 | 126.78607 | 26064 ft | 508 kts | 192° |
| 2026-05-01 10:52 | 35.86252 | 126.78099 | 26510 ft | 506 kts | 193° |
| 2026-05-01 10:52 | 35.82784 | 126.77723 | 26822 ft | 505 kts | 193° |
| 2026-05-01 10:52 | 35.79288 | 126.77342 | 27150 ft | 503 kts | 193° |
| 2026-05-01 10:52 | 35.76945 | 126.77091 | 27344 ft | 502 kts | 193° |
| 2026-05-01 10:53 | 35.72334 | 126.76599 | 27783 ft | 500 kts | 193° |
| 2026-05-01 10:53 | 35.70033 | 126.76354 | 27998 ft | 499 kts | 193° |
| 2026-05-01 10:53 | 35.66538 | 126.75977 | 28277 ft | 498 kts | 194° |
| 2026-05-01 10:53 | 35.63074 | 126.75601 | 28413 ft | 501 kts | 194° |
| 2026-05-01 10:54 | 35.59630 | 126.75226 | 28503 ft | 504 kts | 194° |
| 2026-05-01 10:54 | 35.52607 | 126.74468 | 28737 ft | 507 kts | 193° |
| 2026-05-01 10:54 | 35.49100 | 126.74090 | 28969 ft | 506 kts | 193° |
| 2026-05-01 10:55 | 35.45587 | 126.73714 | 29208 ft | 505 kts | 193° |
| 2026-05-01 10:55 | 35.42083 | 126.73341 | 29420 ft | 505 kts | 193° |
| 2026-05-01 10:55 | 35.38586 | 126.72970 | 29589 ft | 504 kts | 193° |
| 2026-05-01 10:55 | 35.35088 | 126.72600 | 29777 ft | 504 kts | 193° |
| 2026-05-01 10:56 | 35.31593 | 126.72227 | 29946 ft | 504 kts | 193° |
| 2026-05-01 10:56 | 35.28088 | 126.71853 | 30106 ft | 504 kts | 194° |
| 2026-05-01 10:56 | 35.24591 | 126.71478 | 30254 ft | 503 kts | 194° |
| 2026-05-01 10:56 | 35.21103 | 126.71107 | 30396 ft | 503 kts | 194° |
| 2026-05-01 10:57 | 35.17653 | 126.70739 | 30489 ft | 503 kts | 194° |
| 2026-05-01 10:57 | 35.14165 | 126.70368 | 30619 ft | 503 kts | 194° |
| 2026-05-01 10:57 | 35.10675 | 126.70000 | 30758 ft | 502 kts | 194° |
| 2026-05-01 10:57 | 35.07189 | 126.69630 | 30890 ft | 502 kts | 194° |
| 2026-05-01 10:58 | 35.03698 | 126.69260 | 31005 ft | 502 kts | 194° |
| 2026-05-01 10:58 | 35.00213 | 126.68889 | 31132 ft | 502 kts | 194° |
| 2026-05-01 10:58 | 34.96769 | 126.68521 | 31247 ft | 502 kts | 194° |
| 2026-05-01 10:58 | 34.93289 | 126.68153 | 31353 ft | 502 kts | 194° |
| 2026-05-01 10:59 | 34.89806 | 126.67785 | 31485 ft | 502 kts | 194° |
| 2026-05-01 10:59 | 34.86319 | 126.67418 | 31592 ft | 502 kts | 194° |
| 2026-05-01 10:59 | 34.82834 | 126.67049 | 31705 ft | 501 kts | 194° |
| 2026-05-01 11:00 | 34.75930 | 126.66323 | 31925 ft | 498 kts | 194° |
| 2026-05-01 11:00 | 34.72476 | 126.65960 | 32071 ft | 496 kts | 194° |
| 2026-05-01 11:00 | 34.69028 | 126.65596 | 32197 ft | 495 kts | 194° |
| 2026-05-01 11:00 | 34.65585 | 126.65233 | 32300 ft | 494 kts | 194° |
| 2026-05-01 11:01 | 34.62155 | 126.64872 | 32403 ft | 494 kts | 194° |
| 2026-05-01 11:01 | 34.55346 | 126.64160 | 32568 ft | 493 kts | 194° |
| 2026-05-01 11:02 | 34.48504 | 126.63442 | 32738 ft | 492 kts | 195° |
| 2026-05-01 11:02 | 34.41665 | 126.62723 | 32897 ft | 493 kts | 195° |
| 2026-05-01 11:03 | 34.34881 | 126.62014 | 33038 ft | 491 kts | 195° |
| 2026-05-01 11:03 | 34.28066 | 126.61305 | 33207 ft | 490 kts | 195° |
| 2026-05-01 11:04 | 34.21266 | 126.60597 | 33350 ft | 489 kts | 195° |
| 2026-05-01 11:04 | 34.14485 | 126.59889 | 33460 ft | 488 kts | 195° |
| 2026-05-01 11:05 | 34.07706 | 126.59182 | 33566 ft | 489 kts | 195° |
| 2026-05-01 11:05 | 34.00925 | 126.58478 | 33661 ft | 489 kts | 195° |
| 2026-05-01 11:06 | 33.94148 | 126.57776 | 33754 ft | 488 kts | 194° |
| 2026-05-01 11:06 | 33.87430 | 126.57079 | 33845 ft | 488 kts | 194° |
| 2026-05-01 11:07 | 33.80943 | 126.55463 | 33880 ft | 466 kts | 210° |
| 2026-05-01 11:07 | 33.77897 | 126.54128 | 33885 ft | 464 kts | 211° |
| 2026-05-01 11:07 | 33.71831 | 126.51419 | 33970 ft | 465 kts | 210° |
| 2026-05-01 11:08 | 33.65795 | 126.48798 | 34028 ft | 462 kts | 210° |
| 2026-05-01 11:09 | 33.56714 | 126.44861 | 34024 ft | 464 kts | 210° |
| 2026-05-01 11:09 | 33.50629 | 126.42228 | 34038 ft | 465 kts | 210° |
| 2026-05-01 11:10 | 33.41487 | 126.38292 | 33998 ft | 466 kts | 210° |
| 2026-05-01 11:10 | 33.35402 | 126.35674 | 34032 ft | 469 kts | 210° |
| 2026-05-01 11:11 | 33.29240 | 126.33029 | 34037 ft | 471 kts | 210° |
| 2026-05-01 11:11 | 33.23067 | 126.30385 | 34014 ft | 471 kts | 210° |
| 2026-05-01 11:12 | 33.16859 | 126.27728 | 34031 ft | 473 kts | 209° |
| 2026-05-01 11:12 | 33.10663 | 126.25084 | 34043 ft | 472 kts | 209° |
| 2026-05-01 11:13 | 33.04495 | 126.22453 | 34039 ft | 470 kts | 209° |
| 2026-05-01 11:13 | 32.98378 | 126.19842 | 34041 ft | 469 kts | 209° |
| 2026-05-01 11:14 | 32.92231 | 126.17199 | 34041 ft | 469 kts | 209° |
| 2026-05-01 11:14 | 32.86077 | 126.14556 | 34031 ft | 469 kts | 209° |
| 2026-05-01 11:15 | 32.79924 | 126.11920 | 34046 ft | 470 kts | 209° |
| 2026-05-01 11:15 | 32.73767 | 126.09289 | 34049 ft | 470 kts | 209° |
| 2026-05-01 11:16 | 32.67644 | 126.06675 | 34049 ft | 470 kts | 209° |
| 2026-05-01 11:16 | 32.61493 | 126.04052 | 34049 ft | 468 kts | 208° |
| 2026-05-01 11:17 | 32.55352 | 126.01436 | 34055 ft | 468 kts | 208° |
| 2026-05-01 11:17 | 32.49218 | 125.98830 | 34056 ft | 468 kts | 208° |
| 2026-05-01 11:18 | 32.43126 | 125.96244 | 34049 ft | 467 kts | 208° |
| 2026-05-01 11:18 | 32.36993 | 125.93651 | 34052 ft | 467 kts | 208° |
| 2026-05-01 11:19 | 32.30879 | 125.91067 | 34065 ft | 467 kts | 208° |
| 2026-05-01 11:19 | 32.24752 | 125.88481 | 34049 ft | 467 kts | 208° |
| 2026-05-01 11:20 | 32.18625 | 125.85896 | 34061 ft | 466 kts | 208° |
| 2026-05-01 11:20 | 32.12510 | 125.83323 | 34068 ft | 466 kts | 208° |
| 2026-05-01 11:21 | 32.06426 | 125.80765 | 34051 ft | 467 kts | 208° |
| 2026-05-01 11:21 | 32.00285 | 125.78189 | 34068 ft | 467 kts | 208° |
| 2026-05-01 11:22 | 31.94166 | 125.75613 | 34070 ft | 467 kts | 208° |
| 2026-05-01 11:22 | 31.88054 | 125.73046 | 34052 ft | 466 kts | 207° |
| 2026-05-01 11:23 | 31.81976 | 125.70495 | 34069 ft | 467 kts | 207° |
| 2026-05-01 11:23 | 31.75843 | 125.67931 | 34071 ft | 467 kts | 207° |
| 2026-05-01 11:24 | 31.69724 | 125.65373 | 34065 ft | 467 kts | 207° |
| 2026-05-01 11:25 | 31.60506 | 125.61509 | 34075 ft | 469 kts | 207° |
| 2026-05-01 11:25 | 31.51309 | 125.57665 | 34082 ft | 468 kts | 207° |
| 2026-05-01 11:26 | 31.42102 | 125.53806 | 34081 ft | 470 kts | 207° |
| 2026-05-01 11:27 | 31.35935 | 125.51225 | 34081 ft | 469 kts | 207° |
| 2026-05-01 11:27 | 31.29786 | 125.48659 | 34062 ft | 468 kts | 207° |
| 2026-05-01 11:28 | 31.23627 | 125.46092 | 34081 ft | 469 kts | 207° |
| 2026-05-01 11:28 | 31.17478 | 125.43533 | 34089 ft | 469 kts | 207° |
| 2026-05-01 11:29 | 31.08259 | 125.39701 | 34090 ft | 469 kts | 206° |
| 2026-05-01 11:30 | 30.99069 | 125.35889 | 34089 ft | 469 kts | 206° |
| 2026-05-01 11:30 | 30.92918 | 125.33342 | 34099 ft | 469 kts | 206° |
| 2026-05-01 11:31 | 30.86759 | 125.30795 | 34083 ft | 469 kts | 206° |
| 2026-05-01 11:31 | 30.80642 | 125.28270 | 34099 ft | 468 kts | 206° |
| 2026-05-01 11:32 | 30.74490 | 125.25733 | 34099 ft | 468 kts | 206° |
| 2026-05-01 11:32 | 30.68358 | 125.23208 | 34083 ft | 467 kts | 206° |
| 2026-05-01 11:33 | 30.62224 | 125.20685 | 34095 ft | 466 kts | 206° |
| 2026-05-01 11:33 | 30.56109 | 125.18173 | 34103 ft | 466 kts | 206° |
| 2026-05-01 11:34 | 30.50018 | 125.15675 | 34109 ft | 466 kts | 206° |
| 2026-05-01 11:34 | 30.43889 | 125.13163 | 34103 ft | 467 kts | 206° |
| 2026-05-01 11:35 | 30.37757 | 125.10653 | 34102 ft | 466 kts | 206° |
| 2026-05-01 11:35 | 30.31630 | 125.08151 | 34112 ft | 466 kts | 206° |
| 2026-05-01 11:36 | 30.25515 | 125.05652 | 34090 ft | 467 kts | 205° |
| 2026-05-01 11:36 | 30.20416 | 125.03575 | 34110 ft | 466 kts | 205° |
| 2026-05-01 11:37 | 30.14294 | 125.01081 | 34108 ft | 466 kts | 205° |
| 2026-05-01 11:37 | 30.08180 | 124.98594 | 34114 ft | 463 kts | 205° |
| 2026-05-01 11:38 | 30.02093 | 124.96123 | 34108 ft | 464 kts | 205° |
| 2026-05-01 11:38 | 29.96016 | 124.93605 | 34111 ft | 463 kts | 206° |
| 2026-05-01 11:39 | 29.90010 | 124.91014 | 34115 ft | 463 kts | 206° |
| 2026-05-01 11:39 | 29.83958 | 124.88425 | 34097 ft | 464 kts | 206° |
| 2026-05-01 11:40 | 29.77894 | 124.85841 | 34111 ft | 465 kts | 206° |
| 2026-05-01 11:40 | 29.71829 | 124.83262 | 34113 ft | 464 kts | 206° |
| 2026-05-01 11:41 | 29.65809 | 124.80697 | 34114 ft | 464 kts | 206° |
| 2026-05-01 11:41 | 29.59742 | 124.78120 | 34116 ft | 464 kts | 205° |
| 2026-05-01 11:42 | 29.53679 | 124.75551 | 34115 ft | 464 kts | 205° |
| 2026-05-01 11:42 | 29.47625 | 124.72989 | 34118 ft | 463 kts | 205° |
| 2026-05-01 11:43 | 29.41579 | 124.70433 | 34103 ft | 463 kts | 205° |
| 2026-05-01 11:43 | 29.35553 | 124.67888 | 34115 ft | 463 kts | 205° |
| 2026-05-01 11:44 | 29.26476 | 124.64059 | 34121 ft | 463 kts | 205° |
| 2026-05-01 11:44 | 28.28187 | 123.98893 | 34009 ft | 454 kts | 205° |
| 2026-05-01 11:45 | 28.22378 | 123.96170 | 34091 ft | 451 kts | 208° |
| 2026-05-01 11:45 | 28.16644 | 123.93350 | 34104 ft | 453 kts | 208° |
| 2026-05-01 11:46 | 28.10887 | 123.90465 | 34116 ft | 453 kts | 208° |
| 2026-05-01 11:46 | 28.05118 | 123.87592 | 34117 ft | 452 kts | 208° |
| 2026-05-01 11:47 | 27.99352 | 123.84722 | 34117 ft | 452 kts | 208° |
| 2026-05-01 11:47 | 27.93570 | 123.81865 | 34118 ft | 453 kts | 208° |
| 2026-05-01 11:48 | 27.87774 | 123.79020 | 34125 ft | 453 kts | 208° |
| 2026-05-01 11:48 | 27.82012 | 123.76212 | 34118 ft | 453 kts | 207° |
| 2026-05-01 11:49 | 27.76198 | 123.73419 | 34090 ft | 454 kts | 207° |
| 2026-05-01 11:49 | 27.70366 | 123.70648 | 34108 ft | 455 kts | 207° |
| 2026-05-01 11:50 | 27.64498 | 123.67958 | 34116 ft | 455 kts | 207° |
| 2026-05-01 11:50 | 27.59019 | 123.64631 | 34113 ft | 447 kts | 220° |
| 2026-05-01 11:51 | 27.56496 | 123.62579 | 34307 ft | 446 kts | 221° |
| 2026-05-01 11:51 | 27.54034 | 123.60530 | 33996 ft | 438 kts | 221° |
| 2026-05-01 11:51 | 27.49063 | 123.56464 | 34066 ft | 443 kts | 220° |
| 2026-05-01 11:52 | 27.44033 | 123.52396 | 34110 ft | 447 kts | 220° |
| 2026-05-01 11:52 | 27.38974 | 123.48307 | 34113 ft | 447 kts | 220° |